CCGS Henry Larsen — CGHL — position and weather

sailwx.info

Track history (hours):
 
Tides and Currents Weather Stations Pressure Air Temp Water Temp Dewpoint Dewpoint Depression Visibility Wind Speed Wind Dir Waves Ship Positions

CCGS Henry Larsen (Canada)

Medium Gulf/River Icebreaker

Last reported at 2019-Feb-20 15:27 UTC. Time now 2019-Feb-20 15:46 UTC.
Position N 49°06' W 058°17'.

Length 100.03 m; beam 19.82 m; draft 7.2 m.

Type: SAR. MMSI: 316013000.

Date/timePositionNaut miles runAvg speedWind from/ knotsBaromVisibWave heightAir tempDewpointWater temp
2019-Feb-20 15:27N 49°06' W 058°17'510.3
2019-Feb-20 15:00N 49°10' W 058°22'3197.4
2019-Feb-20 15:00N 49°12' W 058°24'7 7.2 270 / 291012.9 -18.7-22.5
2019-Feb-20 14:00N 49°18' W 058°30'10 9.9 300 / 251013.9 -18.5-23.5
2019-Feb-20 13:00N 49°24' W 058°42'20 9.8 290 / 211013.9 -17.6-21.8
2019-Feb-20 11:00N 49°42' W 058°54'6 6.0 340 / 121012.7 -20.7-25.3
2019-Feb-20 10:00N 49°48' W 058°54'1212.0 360 / 101012.3 -20.7-25.9
2019-Feb-20 09:00N 50°00' W 058°54'1312.6 360 / 111011.5 -20.5-26.1
2019-Feb-20 08:00N 50°12' W 058°48'6 6.0 360 / 101010.8 -20.1-25.6
2019-Feb-20 07:00N 50°18' W 058°48'1212.0 360 / 101010.1 -20.1-26.4
2019-Feb-20 06:00N 50°30' W 058°48'7 7.1 010 / 111009.0 -19.6-25.5
2019-Feb-20 05:00N 50°36' W 058°42'1312.6 010 / 111008.5 -19.3-25.4
2019-Feb-20 04:00N 50°48' W 058°36'8 7.6 280 / 271006.5 -19.0-25.2
2019-Feb-20 03:00N 50°48' W 058°24'1312.9 270 / 321005.5 -18.0-24.5
2019-Feb-20 02:00N 50°54' W 058°06'8 7.6 270 / 291004.8 -16.3-23.0
2019-Feb-20 01:00N 50°54' W 057°54'3210.7 270 / 261003.7 -14.9-21.7
2019-Feb-19 22:00N 51°12' W 057°12'7 7.1 250 / 151001.8 -11.9-17.9
2019-Feb-19 21:00N 51°18' W 057°06'0 0.0 210 / 111001.7 -11.8-17.4
2019-Feb-19 20:00N 51°18' W 057°06'0 0.0 220 / 121001.5 -11.7-18.5
2019-Feb-19 19:00N 51°18' W 057°06'0 0.0 230 / 131001.4 -12.1-18.1
2019-Feb-19 18:00N 51°18' W 057°06'6 6.0 220 / 111001.6 -12.4-17.7
2019-Feb-19 17:00N 51°12' W 057°06'0 0.0 220 / 131001.6 -13.1-18.4
2019-Feb-19 16:00N 51°12' W 057°06'0 0.0 230 / 111001.7 -13.4-18.6
2019-Feb-19 15:00N 51°12' W 057°06'0 0.0 230 / 131001.9 -13.6-18.5
2019-Feb-19 14:00N 51°12' W 057°06'7 7.1 240 / 141001.5 -13.1-18.2
2019-Feb-19 13:00N 51°18' W 057°00'4 3.8 240 / 121001.3 -12.8-17.4
2019-Feb-19 12:00N 51°18' W 056°54'0 0.0 260 / 61001.1 -11.3-16.3
2019-Feb-19 11:00N 51°18' W 056°54'7 7.1 220 / 151000.2 -12.7-17.2
2019-Feb-19 10:00N 51°12' W 056°48'0 0.0 220 / 10999.8 -13.1-17.3
2019-Feb-19 09:00N 51°12' W 056°48'0 0.0 240 / 9999.2 -13.3-17.4
2019-Feb-19 08:00N 51°12' W 056°48'0 0.0 240 / 9998.9 -13.0-17.3
2019-Feb-19 07:00N 51°12' W 056°48'0 0.0 230 / 10998.8 -12.7-17.0
2019-Feb-19 06:00N 51°12' W 056°48'0 0.0 230 / 10998.6 -12.6-16.7
2019-Feb-19 04:00N 51°12' W 056°48'0 0.0 190 / 8999.0 -12.1-16.2
2019-Feb-19 03:00N 51°12' W 056°48'0 0.0 210 / 7998.7 -11.6-15.6
2019-Feb-19 02:00N 51°12' W 056°48'0 0.0 220 / 14999.4 -11.2-15.2
2019-Feb-19 01:00N 51°12' W 056°48'0 0.0 220 / 13999.5 -10.6-14.4
2019-Feb-19 00:00N 51°12' W 056°48'0 0.0 200 / 11999.4 -10.6-13.8
2019-Feb-18 23:00N 51°12' W 056°48'0 0.0 180 / 16998.8 -11.0-13.6
2019-Feb-18 22:00N 51°12' W 056°48'0 0.0 180 / 22997.9 -11.5-14.4
2019-Feb-18 21:00N 51°12' W 056°48'0 0.0 180 / 24997.4 -12.4-15.3
2019-Feb-18 20:00N 51°12' W 056°48'0 0.0 180 / 20997.1 -12.5-16.1
2019-Feb-18 19:00N 51°12' W 056°48'0 0.0 180 / 24997.6 -13.5-17.1
2019-Feb-18 18:00N 51°12' W 056°48'0 0.0 190 / 28997.2 -13.9-18.1
2019-Feb-18 17:00N 51°12' W 056°48'0 0.0 190 / 29996.8 -14.4-18.8
2019-Feb-18 16:00N 51°12' W 056°48'0 0.0 190 / 31996.1 -14.6-19.6
2019-Feb-18 15:00N 51°12' W 056°48'0 0.0 190 / 30997.1 -15.3-20.3
2019-Feb-18 14:00N 51°12' W 056°48'0 0.0 190 / 31996.3 -15.6-20.5
2019-Feb-18 13:00N 51°12' W 056°48'0 0.0 200 / 29997.3 -16.0-21.6
2019-Feb-18 12:00N 51°12' W 056°48'0 0.0 200 / 26998.4 -16.7-21.8
2019-Feb-18 11:00N 51°12' W 056°48'0 0.0 200 / 25997.6 -16.5-21.5
2019-Feb-18 09:00N 51°12' W 056°48'0 0.0 200 / 26998.0 -16.0-20.9
2019-Feb-18 08:00N 51°12' W 056°48'0 0.0 200 / 28997.6 -15.6-20.7
2019-Feb-18 07:00N 51°12' W 056°48'0 0.0 200 / 23998.2 -15.1-20.0
2019-Feb-18 06:00N 51°12' W 056°48'0 0.0 200 / 22998.2 -14.6-19.4
2019-Feb-18 05:00N 51°12' W 056°48'0 0.0 210 / 25997.5 -14.2-19.5
2019-Feb-18 04:00N 51°12' W 056°48'0 0.0 210 / 28997.7 -13.6-18.5
2019-Feb-18 03:00N 51°12' W 056°48'0 0.0 210 / 25997.7 -12.9-18.0
2019-Feb-18 02:00N 51°12' W 056°48'0 0.0 220 / 21997.9 -12.2-17.2
2019-Feb-18 01:00N 51°12' W 056°48'0 0.0 220 / 24997.3 -11.5-16.4
2019-Feb-18 00:00N 51°12' W 056°48'0 0.0 210 / 23997.1 -10.4-14.8
2019-Feb-17 23:00N 51°12' W 056°48'0 0.0 220 / 25996.2 -8.6-12.1
2019-Feb-17 21:00N 51°12' W 056°48'0 0.0 200 / 23995.6 -7.5-11.1
2019-Feb-17 20:00N 51°12' W 056°48'0 0.0 200 / 21995.5 -6.9-8.8
2019-Feb-17 19:00N 51°12' W 056°48'0 0.0 190 / 21995.3 -6.4-9.0
2019-Feb-17 18:00N 51°12' W 056°48'0 0.0 210 / 22995.2 -6.3-10.4
2019-Feb-17 17:00N 51°12' W 056°48'7 7.1 210 / 14995.1 -5.0-8.9
2019-Feb-17 16:00N 51°18' W 056°54'10 9.6 290 / 11994.6 -4.4-7.9
2019-Feb-17 15:00N 51°24' W 057°06'0 0.0 270 / 4994.3 -4.2-7.1
2019-Feb-17 14:00N 51°24' W 057°06'10 9.6 210 / 26992.4 -5.2-8.0
2019-Feb-17 13:00N 51°18' W 056°54'7 7.1 210 / 23992.4 -5.1-7.2
2019-Feb-17 12:00N 51°12' W 056°48'6 6.0 230 / 15992.4 -4.9-6.5
2019-Feb-17 11:00N 51°18' W 056°48'0 0.0 200 / 14990.8 -5.0-6.0
2019-Feb-17 10:00N 51°18' W 056°48'0 0.0 200 / 15990.2 -5.2-5.8
2019-Feb-17 09:00N 51°18' W 056°48'4 1.3 190 / 17990.0 -4.3-4.8
2019-Feb-17 06:00N 51°18' W 056°54'0 0.0 160 / 12991.1 -0.7-0.8
2019-Feb-17 05:00N 51°18' W 056°54'0 0.0 140 / 4991.8 -0.5-0.6
2019-Feb-17 04:00N 51°18' W 056°54'6 3.0 130 / 5993.3 -0.2-0.3
2019-Feb-17 02:00N 51°12' W 056°54'0 0.0 190 / 2996.2 -0.3-0.5
2019-Feb-17 01:00N 51°12' W 056°54'0 0.0 150 / 5997.3 -0.0-0.3
2019-Feb-17 00:00N 51°12' W 056°54'0 0.0 180 / 3998.4 -0.1-0.6
2019-Feb-16 23:00N 51°12' W 056°54'0 0.0 150 / 2999.6 -0.0-0.9
2019-Feb-16 22:00N 51°12' W 056°54'4 3.8 110 / 171001.3 -0.0-2.0
2019-Feb-16 21:00N 51°12' W 056°48'0 0.0 090 / 181001.9 -0.3-2.4
2019-Feb-16 20:00N 51°12' W 056°48'0 0.0 090 / 221002.4 -0.6-3.0
2019-Feb-16 19:00N 51°12' W 056°48'0 0.0 090 / 231003.0 -0.7-3.4
2019-Feb-16 18:00N 51°12' W 056°48'0 0.0 090 / 211004.2 -1.7-4.6
2019-Feb-16 17:00N 51°12' W 056°48'0 0.0 080 / 251004.7 -2.5-5.4
2019-Feb-16 16:00N 51°12' W 056°48'0 0.0 090 / 271005.8 -2.8-6.5
2019-Feb-16 13:00N 51°12' W 056°48'0 0.0 080 / 251012.6 -5.3-7.1
2019-Feb-16 12:00N 51°12' W 056°48'0 0.0 110 / 131015.7 -6.4-9.4
2019-Feb-16 11:00N 51°12' W 056°48'0 0.0 070 / 81018.3 -6.6-10.1
2019-Feb-16 10:00N 51°12' W 056°48'0 0.0 060 / 61020.0 -9.5-12.4
2019-Feb-16 09:00N 51°12' W 056°48'0 0.0 080 / 51020.8 -10.4-13.5
2019-Feb-16 08:00N 51°12' W 056°48'0 0.0 070 / 61021.8 -10.1-13.5
2019-Feb-16 07:00N 51°12' W 056°48'0 0.0 070 / 41023.1 -9.6-13.0
2019-Feb-16 06:00N 51°12' W 056°48'0 0.0 060 / 51024.2 -11.7-15.0
2019-Feb-16 05:00N 51°12' W 056°48'0 0.0 060 / 31024.7 -12.2-15.2
2019-Feb-16 04:00N 51°12' W 056°48'0 0.0 070 / 31024.6 -12.2-14.7
2019-Feb-16 03:00N 51°12' W 056°48'0 0.0 090 / 21025.1 -11.6-14.3
2019-Feb-16 02:00N 51°12' W 056°48'0 0.0 090 / 41025.8 -11.9-14.6
2019-Feb-16 01:00N 51°12' W 056°48'0 0.0 100 / 51026.0 -13.2-15.2
2019-Feb-16 00:00N 51°12' W 056°48'0 0.0 110 / 51025.6 -12.6-15.0
2019-Feb-15 23:00N 51°12' W 056°48'0 0.0 160 / 41025.6 -10.9-13.2
2019-Feb-15 22:00N 51°12' W 056°48'7 7.1 180 / 61025.9 -10.2-12.9
2019-Feb-15 21:00N 51°18' W 056°54'7 3.5 190 / 191025.0 -8.7-12.3
2019-Feb-15 19:00N 51°12' W 056°48'4 3.8 200 / 61024.5 -8.1-12.5
2019-Feb-15 18:00N 51°12' W 056°54'6 6.0 260 / 61024.3 -6.8-12.6
2019-Feb-15 17:00N 51°18' W 056°54'0 0.0 270 / 31024.0 -6.4-12.6
2019-Feb-15 16:00N 51°18' W 056°54'10 9.6 300 / 81023.9 -7.1-13.2
2019-Feb-15 15:00N 51°24' W 057°06'10 9.6 270 / 261023.3 -9.9-15.5
2019-Feb-15 14:00N 51°18' W 056°54'7 7.1 240 / 171022.7 -8.7-13.8
2019-Feb-15 13:00N 51°12' W 056°48'0 0.0 290 / 111022.1 -9.3-13.7
2019-Feb-15 12:00N 51°12' W 056°48'0 0.0 300 / 41021.1 -9.5-13.8
2019-Feb-15 11:00N 51°12' W 056°48'0 0.0 280 / 71019.5 -9.6-13.1
2019-Feb-15 10:00N 51°12' W 056°48'0 0.0 330 / 61017.2 -9.6-13.8
2019-Feb-15 09:00N 51°12' W 056°48'0 0.0 320 / 141015.3 -9.0-13.4
2019-Feb-15 07:00N 51°12' W 056°48'0 0.0 310 / 111011.8 -7.7-11.3
2019-Feb-15 06:00N 51°12' W 056°48'0 0.0 320 / 131010.1 -7.4-10.6
2019-Feb-15 05:00N 51°12' W 056°48'0 0.0 310 / 151008.1 -7.4-11.1
2019-Feb-15 04:00N 51°12' W 056°48'0 0.0 330 / 191006.6 -7.1-11.5
2019-Feb-15 03:00N 51°12' W 056°48'0 0.0 330 / 181004.8 -7.7-11.4
2019-Feb-15 02:00N 51°12' W 056°48'0 0.0 330 / 241002.7 -7.9-11.1
2019-Feb-15 01:00N 51°12' W 056°48'0 0.0 330 / 291000.5 -7.5-10.5
2019-Feb-15 00:00N 51°12' W 056°48'0 0.0 330 / 271000.3 -7.7-10.8
2019-Feb-14 23:00N 51°12' W 056°48'0 0.0 330 / 28999.3 -8.1-11.2
2019-Feb-14 22:00N 51°12' W 056°48'0 0.0 330 / 28998.3 -8.4-11.2
2019-Feb-14 21:00N 51°12' W 056°48'0 0.0 330 / 30996.9 -8.4-10.7
2019-Feb-14 20:00N 51°12' W 056°48'0 0.0 340 / 31996.6 -7.7-9.7
2019-Feb-14 19:00N 51°12' W 056°48'0 0.0 340 / 30996.4 -7.7-9.6
2019-Feb-14 18:00N 51°12' W 056°48'0 0.0 340 / 29996.1 -8.2-10.2
2019-Feb-14 17:00N 51°12' W 056°48'0 0.0 340 / 27997.0 -8.0-10.2
2019-Feb-14 16:00N 51°12' W 056°48'0 0.0 350 / 25998.4 -7.9-10.4
2019-Feb-14 15:00N 51°12' W 056°48'0 0.0 360 / 211000.1 -8.6-11.2
2019-Feb-14 14:00N 51°12' W 056°48'16 8.1 360 / 271000.1 -9.2-11.5
2019-Feb-14 12:00N 51°06' W 057°12'4 3.8 020 / 351001.9 -10.0-11.8
2019-Feb-14 11:00N 51°06' W 057°18'0 0.0 010 / 351002.2 -10.2-12.0
2019-Feb-14 10:00N 51°06' W 057°18'0 0.0 010 / 311003.2 -11.0-12.8
2019-Feb-14 09:00N 51°06' W 057°18'6 6.0 020 / 301004.7 -11.1-13.0
2019-Feb-14 08:00N 51°00' W 057°18'6 6.0 030 / 211005.8 -9.7-11.6
2019-Feb-14 07:00N 50°54' W 057°18'10 9.7 010 / 281006.7 -9.7-11.8
2019-Feb-14 06:00N 50°48' W 057°30'7 7.1 360 / 261007.1 -9.2-11.7
2019-Feb-14 05:00N 50°42' W 057°36'1414.2 010 / 191007.5 -8.0-12.4
2019-Feb-14 04:00N 50°30' W 057°48'1312.6 030 / 221007.4 -7.3-13.0
2019-Feb-14 03:00N 50°18' W 057°54'1312.6 010 / 161009.2 -7.7-12.8
2019-Feb-14 02:00N 50°06' W 058°00'1414.3 030 / 141009.9 -7.0-13.4
2019-Feb-14 01:00N 49°54' W 058°12'7 7.1 030 / 151010.3 -6.7-13.8
2019-Feb-14 00:00N 49°48' W 058°18'1212.0 350 / 141012.7 -8.0-12.4
2019-Feb-13 23:00N 49°36' W 058°18'1312.6 060 / 61013.9 -6.9-12.4
2019-Feb-13 22:00N 49°24' W 058°24'7 7.2 280 / 31014.8 -7.2-13.5
2019-Feb-13 21:00N 49°18' W 058°18'1515.6 110 / 181016.2 -6.9-11.9
2019-Feb-13 20:02N 49°04' W 058°09'013.3
2019-Feb-13 20:00N 49°04' W 058°09'3168.2
2019-Feb-13 20:00N 49°06' W 058°06'715.1 170 / 71017.1 -7.6-12.0
2019-Feb-13 19:30N 48°59' W 058°03'5 9.2
2019-Feb-13 19:00N 48°58' W 057°57'4244.7
2019-Feb-13 19:00N 48°54' W 057°54'4 8.1 1018.4 -7.5-12.3
2019-Feb-13 18:30N 48°58' W 057°57'0 0.0
2019-Feb-13 18:00N 48°58' W 057°57'4243.7
2019-Feb-13 18:00N 48°54' W 057°54'4 8.1 320 / 31019.4 -8.1-12.8
2019-Feb-13 17:30N 48°58' W 057°57'0 0.0
2019-Feb-13 17:00N 48°58' W 057°57'4243.7
2019-Feb-13 17:00N 48°54' W 057°54'4 8.1 310 / 11020.7 -8.4-13.0
2019-Feb-13 16:30N 48°58' W 057°57'0 0.0
2019-Feb-13 16:00N 48°58' W 057°57'4243.7
2019-Feb-13 16:00N 48°54' W 057°54'4 8.1 200 / 31022.3 -8.7-13.5
2019-Feb-13 15:30N 48°58' W 057°57'0 0.0
2019-Feb-13 15:00N 48°58' W 057°57'4243.7
2019-Feb-13 15:00N 48°54' W 057°54'4 8.1 170 / 21023.3 -8.5-13.4
2019-Feb-13 14:30N 48°58' W 057°57'0 0.0
2019-Feb-13 14:00N 48°58' W 057°57'4239.6
2019-Feb-13 14:00N 48°54' W 057°54'4 8.1 190 / 31023.6 -9.4-14.2
2019-Feb-13 13:30N 48°58' W 057°57'0 0.0
2019-Feb-13 13:00N 48°58' W 057°57'4244.1
2019-Feb-13 13:00N 48°54' W 057°54'4 8.1 170 / 51024.5 -9.8-14.7
2019-Feb-13 12:30N 48°58' W 057°57'0 0.0
2019-Feb-13 12:00N 48°58' W 057°57'4239.6
2019-Feb-13 12:00N 48°54' W 057°54'4 8.1 150 / 51024.7 -10.2-14.2
2019-Feb-13 11:30N 48°58' W 057°57'0 0.0
2019-Feb-13 11:00N 48°58' W 057°57'4239.6
2019-Feb-13 11:00N 48°54' W 057°54'4 8.1 110 / 41024.2 -10.2-14.3
2019-Feb-13 10:31N 48°58' W 057°57'0 0.0
2019-Feb-13 10:01N 48°58' W 057°57'4231.8
2019-Feb-13 10:00N 48°54' W 057°54'4 8.1 150 / 61024.6 -10.3-14.5
2019-Feb-13 09:31N 48°58' W 057°57'4 7.6
2019-Feb-13 09:00N 48°54' W 057°54'4122.9 200 / 31024.3 -10.2-14.3
2019-Feb-13 08:58N 48°58' W 057°57'0 0.0
2019-Feb-13 08:28N 48°58' W 057°57'4 8.4
2019-Feb-13 08:00N 48°54' W 057°54'4121.9 230 / 31024.2 -10.1-14.2
2019-Feb-13 07:58N 48°58' W 057°57'0 0.0
2019-Feb-13 07:28N 48°58' W 057°57'4 8.4
2019-Feb-13 07:00N 48°54' W 057°54'4121.9 180 / 51023.8 -10.0-14.4
2019-Feb-13 06:58N 48°58' W 057°57'0 0.0
2019-Feb-13 06:31N 48°58' W 057°57'0 0.0
2019-Feb-13 06:00N 48°58' W 057°57'0 0.0
2019-Feb-13 05:31N 48°58' W 057°57'0 0.0
2019-Feb-13 05:01N 48°58' W 057°57'0 0.0
2019-Feb-13 04:31N 48°58' W 057°57'0 0.0
2019-Feb-13 04:01N 48°58' W 057°57'4231.8
2019-Feb-13 04:00N 48°54' W 057°54'4 8.1 230 / 81022.7 -9.0-14.4
2019-Feb-13 03:31N 48°58' W 057°57'0 0.0
2019-Feb-13 03:01N 48°58' W 057°57'4231.8
2019-Feb-13 03:00N 48°54' W 057°54'4 8.1 230 / 71023.3 -8.3-14.1
2019-Feb-13 02:31N 48°58' W 057°57'0 0.0
2019-Feb-13 02:01N 48°58' W 057°57'4231.8
2019-Feb-13 02:00N 48°54' W 057°54'4 8.1 220 / 81023.0 -7.8-13.6
2019-Feb-13 01:31N 48°58' W 057°57'0 0.0
2019-Feb-13 01:01N 48°58' W 057°57'4231.8
2019-Feb-13 01:00N 48°54' W 057°54'4 8.1 220 / 81023.2 -7.7-13.7
2019-Feb-13 00:30N 48°58' W 057°57'0 0.0
2019-Feb-13 00:01N 48°58' W 057°57'4231.8
2019-Feb-13 00:00N 48°54' W 057°54'4 8.1 220 / 101022.8 -7.7-13.6
2019-Feb-12 23:31N 48°58' W 057°57'0 0.0
2019-Feb-12 23:01N 48°58' W 057°57'4231.8
2019-Feb-12 23:00N 48°54' W 057°54'4 8.1 210 / 111022.1 -7.9-14.0
2019-Feb-12 22:31N 48°58' W 057°57'0 0.0
2019-Feb-12 22:01N 48°58' W 057°57'4231.8
2019-Feb-12 22:00N 48°54' W 057°54'4 8.1 210 / 101021.7 -8.3-13.5
2019-Feb-12 21:31N 48°58' W 057°57'0 0.0
2019-Feb-12 21:01N 48°58' W 057°57'4232.1
2019-Feb-12 21:00N 48°54' W 057°54'4 8.1 210 / 101020.7 -8.8-13.7
2019-Feb-12 20:30N 48°58' W 057°57'0 0.0
2019-Feb-12 20:01N 48°58' W 057°57'4231.8
2019-Feb-12 20:00N 48°54' W 057°54'4 8.1 210 / 111020.0 -9.0-13.8
2019-Feb-12 19:31N 48°58' W 057°57'0 0.0
2019-Feb-12 19:00N 48°58' W 057°57'4248.0
2019-Feb-12 19:00N 48°54' W 057°54'4 7.3 220 / 121019.6 -9.0-13.3
2019-Feb-12 18:27N 48°58' W 057°57'4 8.5
2019-Feb-12 18:00N 48°54' W 057°54'4122.9 220 / 111018.7 -9.0-13.2
2019-Feb-12 17:58N 48°58' W 057°57'0 0.0
2019-Feb-12 17:28N 48°58' W 057°57'4 8.4
2019-Feb-12 17:00N 48°54' W 057°54'4231.8 210 / 131017.6 -8.9-13.2
2019-Feb-12 16:58N 48°58' W 057°57'0 0.0
2019-Feb-12 16:26N 48°58' W 057°57'0 0.0
2019-Feb-12 16:00N 48°58' W 057°57'4248.0
2019-Feb-12 16:00N 48°54' W 057°54'4 8.1 220 / 131017.2 -8.8-13.0
2019-Feb-12 15:31N 48°58' W 057°57'0 0.0
2019-Feb-12 15:01N 48°58' W 057°57'4232.1
2019-Feb-12 15:00N 48°54' W 057°54'4 7.3 230 / 141016.4 -9.1-13.3
2019-Feb-12 14:27N 48°58' W 057°57'3 7.6
2019-Feb-12 14:01N 48°58' W 058°02'5270.4
2019-Feb-12 14:00N 48°54' W 058°00'4 8.7 280 / 151015.1 -8.8-13.5
2019-Feb-12 13:31N 48°58' W 057°57'510.5
2019-Feb-12 13:01N 48°59' W 058°04'5308.6
2019-Feb-12 13:00N 48°54' W 058°06'612.1 280 / 191013.8 -8.5-13.4
2019-Feb-12 12:31N 48°58' W 057°59'2 3.7
2019-Feb-12 12:01N 48°58' W 057°57'4233.2
2019-Feb-12 12:00N 48°54' W 057°54'4 8.1 250 / 91013.7 -9.0-13.0
2019-Feb-12 11:31N 48°58' W 057°57'0 0.0
2019-Feb-12 11:01N 48°58' W 057°57'0 0.0
2019-Feb-12 10:31N 48°58' W 057°57'0 0.0
2019-Feb-12 10:01N 48°58' W 057°57'4231.8
2019-Feb-12 10:00N 48°54' W 057°54'4 8.1 240 / 121011.5 -8.8-13.7
2019-Feb-12 09:31N 48°58' W 057°57'0 0.0
2019-Feb-12 09:01N 48°58' W 057°57'4232.1
2019-Feb-12 09:00N 48°54' W 057°54'4 8.1 230 / 131010.6 -8.6-12.9
2019-Feb-12 08:31N 48°58' W 057°57'0 0.0
2019-Feb-12 08:00N 48°58' W 057°57'4248.0
2019-Feb-12 08:00N 48°54' W 057°54'4 8.1 240 / 131009.6 -8.4-13.0
2019-Feb-12 07:31N 48°58' W 057°57'0 0.0
2019-Feb-12 07:01N 48°58' W 057°57'4231.8
2019-Feb-12 07:00N 48°54' W 057°54'4 8.1 230 / 121008.9 -7.9-12.0
2019-Feb-12 06:31N 48°58' W 057°57'0 0.0
2019-Feb-12 06:01N 48°58' W 057°57'4232.1
2019-Feb-12 06:00N 48°54' W 057°54'4 8.1 220 / 111008.3 -7.7-11.1
2019-Feb-12 05:31N 48°58' W 057°57'0 0.0
2019-Feb-12 05:01N 48°58' W 057°57'4232.1
2019-Feb-12 05:00N 48°54' W 057°54'4 8.1 220 / 101007.4 -7.9-10.8
2019-Feb-12 04:31N 48°58' W 057°57'0 0.0
2019-Feb-12 04:01N 48°58' W 057°57'4231.8
2019-Feb-12 04:00N 48°54' W 057°54'4 8.1 210 / 131006.8 -7.9-10.6
2019-Feb-12 03:31N 48°58' W 057°57'0 0.0
2019-Feb-12 03:00N 48°58' W 057°57'4248.4
2019-Feb-12 03:00N 48°54' W 057°54'4 8.1 200 / 121006.6 -8.0-10.8
2019-Feb-12 02:31N 48°58' W 057°57'0 0.0
2019-Feb-12 02:01N 48°58' W 057°57'4232.1
2019-Feb-12 02:00N 48°54' W 057°54'4 8.1 200 / 151005.6 -8.1-10.3
2019-Feb-12 01:31N 48°58' W 057°57'0 0.0
2019-Feb-12 01:01N 48°58' W 057°57'4231.8
2019-Feb-12 01:00N 48°54' W 057°54'4 8.1 210 / 141004.9 -7.7-10.4
2019-Feb-12 00:30N 48°58' W 057°57'0 0.0
2019-Feb-12 00:01N 48°58' W 057°57'4231.8
2019-Feb-12 00:00N 48°54' W 057°54'4 8.1 210 / 151004.3 -7.9-9.9
2019-Feb-11 23:31N 48°58' W 057°57'0 0.0
2019-Feb-11 23:01N 48°58' W 057°57'0 0.0
2019-Feb-11 22:31N 48°58' W 057°57'0 0.0
2019-Feb-11 22:00N 48°58' W 057°57'4248.0
2019-Feb-11 22:00N 48°54' W 057°54'4 8.1 210 / 151001.2 -8.0-10.7
2019-Feb-11 21:31N 48°58' W 057°57'0 0.0
2019-Feb-11 21:00N 48°58' W 057°57'4239.9
2019-Feb-11 21:00N 48°54' W 057°54'4 8.1 180 / 111000.3 -9.0-12.6
2019-Feb-11 20:30N 48°58' W 057°57'0 0.0
2019-Feb-11 20:00N 48°58' W 057°57'4239.6
2019-Feb-11 20:00N 48°54' W 057°54'4 8.1 170 / 8999.5 -9.9-13.5
2019-Feb-11 19:31N 48°58' W 057°57'0 0.0
2019-Feb-11 19:01N 48°58' W 057°57'4235.6
2019-Feb-11 19:00N 48°54' W 057°54'4 8.1 190 / 14998.6 -10.6-13.4
2019-Feb-11 18:31N 48°58' W 057°57'0 0.0
2019-Feb-11 18:00N 48°58' W 057°57'4442.4
2019-Feb-11 18:00N 48°54' W 057°54'4 8.1 190 / 13997.6 -10.8-14.3
2019-Feb-11 17:31N 48°58' W 057°57'0 0.0
2019-Feb-11 17:01N 48°58' W 057°57'4235.9
2019-Feb-11 17:00N 48°54' W 057°54'4 8.1 180 / 13997.2 -11.3-14.9
2019-Feb-11 16:31N 48°58' W 057°57'0 0.0
2019-Feb-11 16:01N 48°58' W 057°57'4235.6
2019-Feb-11 16:00N 48°54' W 057°54'4 8.1 200 / 21996.1 -11.9-15.4
2019-Feb-11 15:31N 48°58' W 057°57'0 0.0
2019-Feb-11 15:01N 48°58' W 057°57'4232.0
2019-Feb-11 15:00N 48°54' W 057°54'4 7.6 200 / 17996.4 -12.3-14.9
2019-Feb-11 14:29N 48°58' W 057°57'0 0.0
2019-Feb-11 14:00N 48°58' W 057°57'4248.3
2019-Feb-11 14:00N 48°54' W 057°54'4 8.1 190 / 16996.5 -12.7-15.2
2019-Feb-11 13:31N 48°58' W 057°57'0 0.0
2019-Feb-11 13:00N 48°58' W 057°57'4267.1
2019-Feb-11 13:00N 48°54' W 057°54'4 8.1 180 / 16995.8 -13.2-16.1
2019-Feb-11 12:30N 48°58' W 057°57'0 0.0
2019-Feb-11 12:01N 48°58' W 057°57'4235.9
2019-Feb-11 12:00N 48°54' W 057°54'4 8.1 180 / 20995.0 -13.1-16.6
2019-Feb-11 11:30N 48°58' W 057°57'0 0.0
2019-Feb-11 11:00N 48°58' W 057°57'4239.5
2019-Feb-11 11:00N 48°54' W 057°54'4 8.1 190 / 17995.2 -13.3-15.6
2019-Feb-11 10:30N 48°58' W 057°57'0 0.0
2019-Feb-11 10:00N 48°58' W 057°57'4239.6
2019-Feb-11 10:00N 48°54' W 057°54'4 8.1 200 / 24994.4 -13.1-15.7
2019-Feb-11 09:30N 48°58' W 057°57'0 0.0
2019-Feb-11 09:00N 48°58' W 057°57'4248.4
2019-Feb-11 09:00N 48°54' W 057°54'4 8.1 210 / 23994.8 -13.0-15.5
2019-Feb-11 08:30N 48°58' W 057°57'0 0.0
2019-Feb-11 08:01N 48°58' W 057°57'4228.0
2019-Feb-11 08:00N 48°54' W 057°54'4 8.1 210 / 24994.6 -12.8-15.6
2019-Feb-11 07:30N 48°58' W 057°57'0 0.0
2019-Feb-11 07:00N 48°58' W 057°57'4248.4
2019-Feb-11 07:00N 48°54' W 057°54'4 8.1 210 / 24994.3 -12.5-14.9
2019-Feb-11 06:31N 48°58' W 057°57'0 0.0
2019-Feb-11 06:00N 48°58' W 057°57'4248.3
2019-Feb-11 06:00N 48°54' W 057°54'4 8.1 210 / 26994.7 -12.0-14.0
2019-Feb-11 05:31N 48°58' W 057°57'0 0.0
2019-Feb-11 05:01N 48°58' W 057°57'4231.8
2019-Feb-11 05:00N 48°54' W 057°54'4 8.1 200 / 26994.1 -11.4-13.5
2019-Feb-11 04:30N 48°58' W 057°57'0 0.0
2019-Feb-11 03:58N 48°58' W 057°57'0 0.0
2019-Feb-11 03:30N 48°58' W 057°57'0 0.0
2019-Feb-11 03:00N 48°58' W 057°57'4248.4
2019-Feb-11 03:00N 48°54' W 057°54'4 8.1 200 / 22995.4 -10.7-12.9
2019-Feb-11 02:30N 48°58' W 057°57'0 0.0
2019-Feb-11 02:01N 48°58' W 057°57'4235.9
2019-Feb-11 02:00N 48°54' W 057°54'4 8.1 190 / 25995.7 -10.3-13.0
2019-Feb-11 01:31N 48°58' W 057°57'0 0.0
2019-Feb-11 01:01N 48°58' W 057°57'4235.9
2019-Feb-11 01:00N 48°54' W 057°54'4 8.1 190 / 24996.5 -9.9-13.0
2019-Feb-11 00:31N 48°58' W 057°57'0 0.0
2019-Feb-11 00:01N 48°58' W 057°57'4235.6
2019-Feb-11 00:00N 48°54' W 057°54'4 8.1 190 / 26996.2 -9.9-13.3
2019-Feb-10 23:31N 48°58' W 057°57'0 0.0
2019-Feb-10 23:01N 48°58' W 057°57'4235.9
2019-Feb-10 23:00N 48°54' W 057°54'4 8.1 190 / 22996.8 -9.8-13.0
2019-Feb-10 22:31N 48°58' W 057°57'0 0.0
2019-Feb-10 22:01N 48°58' W 057°57'4235.9
2019-Feb-10 22:00N 48°54' W 057°54'4 8.1 190 / 25996.9 -9.8-12.5
2019-Feb-10 21:31N 48°58' W 057°57'0 0.0
2019-Feb-10 21:01N 48°58' W 057°57'4232.1
2019-Feb-10 21:00N 48°54' W 057°54'4 8.1 200 / 23996.7 -9.9-12.6
2019-Feb-10 20:30N 48°58' W 057°57'0 0.0
2019-Feb-10 20:01N 48°58' W 057°57'4235.9
2019-Feb-10 20:00N 48°54' W 057°54'4 8.1 200 / 25996.0 -9.8-12.1
2019-Feb-10 19:30N 48°58' W 057°57'0 0.0
2019-Feb-10 19:01N 48°58' W 057°57'4235.9
2019-Feb-10 19:00N 48°54' W 057°54'4 8.1 200 / 29995.4 -9.7-12.4
2019-Feb-10 18:30N 48°58' W 057°57'0 0.0
2019-Feb-10 18:01N 48°58' W 057°57'4235.5
2019-Feb-10 18:00N 48°54' W 057°54'4 8.1 190 / 28994.3 -9.8-12.1
2019-Feb-10 17:30N 48°58' W 057°57'0 0.0
2019-Feb-10 17:00N 48°58' W 057°57'4248.4
2019-Feb-10 17:00N 48°54' W 057°54'4 8.1 190 / 19994.6 -9.9-11.8
2019-Feb-10 16:31N 48°58' W 057°57'0 0.0
2019-Feb-10 16:00N 48°58' W 057°57'0 0.0
2019-Feb-10 15:31N 48°58' W 057°57'  
Track history (hours):
 
Tides and Currents Weather Stations Pressure Air Temp Water Temp Dewpoint Dewpoint Depression Visibility Wind Speed Wind Dir Waves Ship Positions

CCGS Henry Larsen (Canada)

Medium Gulf/River Icebreaker

Last reported at 2019-Feb-20 15:27 UTC. Time now 2019-Feb-20 15:46 UTC.
Position N 49°06' W 058°17'.

Length 100.03 m; beam 19.82 m; draft 7.2 m.

Type: SAR. MMSI: 316013000.

Date/timePositionNaut miles runAvg speedWind from/ knotsBaromVisibWave heightAir tempDewpointWater temp
2019-Feb-20 15:27N 49°06' W 058°17'510.3
2019-Feb-20 15:00N 49°10' W 058°22'3197.4
2019-Feb-20 15:00N 49°12' W 058°24'7 7.2 270 / 291012.9 -18.7-22.5
2019-Feb-20 14:00N 49°18' W 058°30'10 9.9 300 / 251013.9 -18.5-23.5
2019-Feb-20 13:00N 49°24' W 058°42'20 9.8 290 / 211013.9 -17.6-21.8
2019-Feb-20 11:00N 49°42' W 058°54'6 6.0 340 / 121012.7 -20.7-25.3
2019-Feb-20 10:00N 49°48' W 058°54'1212.0 360 / 101012.3 -20.7-25.9
2019-Feb-20 09:00N 50°00' W 058°54'1312.6 360 / 111011.5 -20.5-26.1
2019-Feb-20 08:00N 50°12' W 058°48'6 6.0 360 / 101010.8 -20.1-25.6
2019-Feb-20 07:00N 50°18' W 058°48'1212.0 360 / 101010.1 -20.1-26.4
2019-Feb-20 06:00N 50°30' W 058°48'7 7.1 010 / 111009.0 -19.6-25.5
2019-Feb-20 05:00N 50°36' W 058°42'1312.6 010 / 111008.5 -19.3-25.4
2019-Feb-20 04:00N 50°48' W 058°36'8 7.6 280 / 271006.5 -19.0-25.2
2019-Feb-20 03:00N 50°48' W 058°24'1312.9 270 / 321005.5 -18.0-24.5
2019-Feb-20 02:00N 50°54' W 058°06'8 7.6 270 / 291004.8 -16.3-23.0
2019-Feb-20 01:00N 50°54' W 057°54'3210.7 270 / 261003.7 -14.9-21.7
2019-Feb-19 22:00N 51°12' W 057°12'7 7.1 250 / 151001.8 -11.9-17.9
2019-Feb-19 21:00N 51°18' W 057°06'0 0.0 210 / 111001.7 -11.8-17.4
2019-Feb-19 20:00N 51°18' W 057°06'0 0.0 220 / 121001.5 -11.7-18.5
2019-Feb-19 19:00N 51°18' W 057°06'0 0.0 230 / 131001.4 -12.1-18.1
2019-Feb-19 18:00N 51°18' W 057°06'6 6.0 220 / 111001.6 -12.4-17.7
2019-Feb-19 17:00N 51°12' W 057°06'0 0.0 220 / 131001.6 -13.1-18.4
2019-Feb-19 16:00N 51°12' W 057°06'0 0.0 230 / 111001.7 -13.4-18.6
2019-Feb-19 15:00N 51°12' W 057°06'0 0.0 230 / 131001.9 -13.6-18.5
2019-Feb-19 14:00N 51°12' W 057°06'7 7.1 240 / 141001.5 -13.1-18.2
2019-Feb-19 13:00N 51°18' W 057°00'4 3.8 240 / 121001.3 -12.8-17.4
2019-Feb-19 12:00N 51°18' W 056°54'0 0.0 260 / 61001.1 -11.3-16.3
2019-Feb-19 11:00N 51°18' W 056°54'7 7.1 220 / 151000.2 -12.7-17.2
2019-Feb-19 10:00N 51°12' W 056°48'0 0.0 220 / 10999.8 -13.1-17.3
2019-Feb-19 09:00N 51°12' W 056°48'0 0.0 240 / 9999.2 -13.3-17.4
2019-Feb-19 08:00N 51°12' W 056°48'0 0.0 240 / 9998.9 -13.0-17.3
2019-Feb-19 07:00N 51°12' W 056°48'0 0.0 230 / 10998.8 -12.7-17.0
2019-Feb-19 06:00N 51°12' W 056°48'0 0.0 230 / 10998.6 -12.6-16.7
2019-Feb-19 04:00N 51°12' W 056°48'0 0.0 190 / 8999.0 -12.1-16.2
2019-Feb-19 03:00N 51°12' W 056°48'0 0.0 210 / 7998.7 -11.6-15.6
2019-Feb-19 02:00N 51°12' W 056°48'0 0.0 220 / 14999.4 -11.2-15.2
2019-Feb-19 01:00N 51°12' W 056°48'0 0.0 220 / 13999.5 -10.6-14.4
2019-Feb-19 00:00N 51°12' W 056°48'0 0.0 200 / 11999.4 -10.6-13.8
2019-Feb-18 23:00N 51°12' W 056°48'0 0.0 180 / 16998.8 -11.0-13.6
2019-Feb-18 22:00N 51°12' W 056°48'0 0.0 180 / 22997.9 -11.5-14.4
2019-Feb-18 21:00N 51°12' W 056°48'0 0.0 180 / 24997.4 -12.4-15.3
2019-Feb-18 20:00N 51°12' W 056°48'0 0.0 180 / 20997.1 -12.5-16.1
2019-Feb-18 19:00N 51°12' W 056°48'0 0.0 180 / 24997.6 -13.5-17.1
2019-Feb-18 18:00N 51°12' W 056°48'0 0.0 190 / 28997.2 -13.9-18.1
2019-Feb-18 17:00N 51°12' W 056°48'0 0.0 190 / 29996.8 -14.4-18.8
2019-Feb-18 16:00N 51°12' W 056°48'0 0.0 190 / 31996.1 -14.6-19.6
2019-Feb-18 15:00N 51°12' W 056°48'0 0.0 190 / 30997.1 -15.3-20.3
2019-Feb-18 14:00N 51°12' W 056°48'0 0.0 190 / 31996.3 -15.6-20.5
2019-Feb-18 13:00N 51°12' W 056°48'0 0.0 200 / 29997.3 -16.0-21.6
2019-Feb-18 12:00N 51°12' W 056°48'0 0.0 200 / 26998.4 -16.7-21.8
2019-Feb-18 11:00N 51°12' W 056°48'0 0.0 200 / 25997.6 -16.5-21.5
2019-Feb-18 09:00N 51°12' W 056°48'0 0.0 200 / 26998.0 -16.0-20.9
2019-Feb-18 08:00N 51°12' W 056°48'0 0.0 200 / 28997.6 -15.6-20.7
2019-Feb-18 07:00N 51°12' W 056°48'0 0.0 200 / 23998.2 -15.1-20.0
2019-Feb-18 06:00N 51°12' W 056°48'0 0.0 200 / 22998.2 -14.6-19.4
2019-Feb-18 05:00N 51°12' W 056°48'0 0.0 210 / 25997.5 -14.2-19.5
2019-Feb-18 04:00N 51°12' W 056°48'0 0.0 210 / 28997.7 -13.6-18.5
2019-Feb-18 03:00N 51°12' W 056°48'0 0.0 210 / 25997.7 -12.9-18.0
2019-Feb-18 02:00N 51°12' W 056°48'0 0.0 220 / 21997.9 -12.2-17.2
2019-Feb-18 01:00N 51°12' W 056°48'0 0.0 220 / 24997.3 -11.5-16.4
2019-Feb-18 00:00N 51°12' W 056°48'0 0.0 210 / 23997.1 -10.4-14.8
2019-Feb-17 23:00N 51°12' W 056°48'0 0.0 220 / 25996.2 -8.6-12.1
2019-Feb-17 21:00N 51°12' W 056°48'0 0.0 200 / 23995.6 -7.5-11.1
2019-Feb-17 20:00N 51°12' W 056°48'0 0.0 200 / 21995.5 -6.9-8.8
2019-Feb-17 19:00N 51°12' W 056°48'0 0.0 190 / 21995.3 -6.4-9.0
2019-Feb-17 18:00N 51°12' W 056°48'0 0.0 210 / 22995.2 -6.3-10.4
2019-Feb-17 17:00N 51°12' W 056°48'7 7.1 210 / 14995.1 -5.0-8.9
2019-Feb-17 16:00N 51°18' W 056°54'10 9.6 290 / 11994.6 -4.4-7.9
2019-Feb-17 15:00N 51°24' W 057°06'0 0.0 270 / 4994.3 -4.2-7.1
2019-Feb-17 14:00N 51°24' W 057°06'10 9.6 210 / 26992.4 -5.2-8.0
2019-Feb-17 13:00N 51°18' W 056°54'7 7.1 210 / 23992.4 -5.1-7.2
2019-Feb-17 12:00N 51°12' W 056°48'6 6.0 230 / 15992.4 -4.9-6.5
2019-Feb-17 11:00N 51°18' W 056°48'0 0.0 200 / 14990.8 -5.0-6.0
2019-Feb-17 10:00N 51°18' W 056°48'0 0.0 200 / 15990.2 -5.2-5.8
2019-Feb-17 09:00N 51°18' W 056°48'4 1.3 190 / 17990.0 -4.3-4.8
2019-Feb-17 06:00N 51°18' W 056°54'0 0.0 160 / 12991.1 -0.7-0.8
2019-Feb-17 05:00N 51°18' W 056°54'0 0.0 140 / 4991.8 -0.5-0.6
2019-Feb-17 04:00N 51°18' W 056°54'6 3.0 130 / 5993.3 -0.2-0.3
2019-Feb-17 02:00N 51°12' W 056°54'0 0.0 190 / 2996.2 -0.3-0.5
2019-Feb-17 01:00N 51°12' W 056°54'0 0.0 150 / 5997.3 -0.0-0.3
2019-Feb-17 00:00N 51°12' W 056°54'0 0.0 180 / 3998.4 -0.1-0.6
2019-Feb-16 23:00N 51°12' W 056°54'0 0.0 150 / 2999.6 -0.0-0.9
2019-Feb-16 22:00N 51°12' W 056°54'4 3.8 110 / 171001.3 -0.0-2.0
2019-Feb-16 21:00N 51°12' W 056°48'0 0.0 090 / 181001.9 -0.3-2.4
2019-Feb-16 20:00N 51°12' W 056°48'0 0.0 090 / 221002.4 -0.6-3.0
2019-Feb-16 19:00N 51°12' W 056°48'0 0.0 090 / 231003.0 -0.7-3.4
2019-Feb-16 18:00N 51°12' W 056°48'0 0.0 090 / 211004.2 -1.7-4.6
2019-Feb-16 17:00N 51°12' W 056°48'0 0.0 080 / 251004.7 -2.5-5.4
2019-Feb-16 16:00N 51°12' W 056°48'0 0.0 090 / 271005.8 -2.8-6.5
2019-Feb-16 13:00N 51°12' W 056°48'0 0.0 080 / 251012.6 -5.3-7.1
2019-Feb-16 12:00N 51°12' W 056°48'0 0.0 110 / 131015.7 -6.4-9.4
2019-Feb-16 11:00N 51°12' W 056°48'0 0.0 070 / 81018.3 -6.6-10.1
2019-Feb-16 10:00N 51°12' W 056°48'0 0.0 060 / 61020.0 -9.5-12.4
2019-Feb-16 09:00N 51°12' W 056°48'0 0.0 080 / 51020.8 -10.4-13.5
2019-Feb-16 08:00N 51°12' W 056°48'0 0.0 070 / 61021.8 -10.1-13.5
2019-Feb-16 07:00N 51°12' W 056°48'0 0.0 070 / 41023.1 -9.6-13.0
2019-Feb-16 06:00N 51°12' W 056°48'0 0.0 060 / 51024.2 -11.7-15.0
2019-Feb-16 05:00N 51°12' W 056°48'0 0.0 060 / 31024.7 -12.2-15.2
2019-Feb-16 04:00N 51°12' W 056°48'0 0.0 070 / 31024.6 -12.2-14.7
2019-Feb-16 03:00N 51°12' W 056°48'0 0.0 090 / 21025.1 -11.6-14.3
2019-Feb-16 02:00N 51°12' W 056°48'0 0.0 090 / 41025.8 -11.9-14.6
2019-Feb-16 01:00N 51°12' W 056°48'0 0.0 100 / 51026.0 -13.2-15.2
2019-Feb-16 00:00N 51°12' W 056°48'0 0.0 110 / 51025.6 -12.6-15.0
2019-Feb-15 23:00N 51°12' W 056°48'0 0.0 160 / 41025.6 -10.9-13.2
2019-Feb-15 22:00N 51°12' W 056°48'7 7.1 180 / 61025.9 -10.2-12.9
2019-Feb-15 21:00N 51°18' W 056°54'7 3.5 190 / 191025.0 -8.7-12.3
2019-Feb-15 19:00N 51°12' W 056°48'4 3.8 200 / 61024.5 -8.1-12.5
2019-Feb-15 18:00N 51°12' W 056°54'6 6.0 260 / 61024.3 -6.8-12.6
2019-Feb-15 17:00N 51°18' W 056°54'0 0.0 270 / 31024.0 -6.4-12.6
2019-Feb-15 16:00N 51°18' W 056°54'10 9.6 300 / 81023.9 -7.1-13.2
2019-Feb-15 15:00N 51°24' W 057°06'10 9.6 270 / 261023.3 -9.9-15.5
2019-Feb-15 14:00N 51°18' W 056°54'7 7.1 240 / 171022.7 -8.7-13.8
2019-Feb-15 13:00N 51°12' W 056°48'0 0.0 290 / 111022.1 -9.3-13.7
2019-Feb-15 12:00N 51°12' W 056°48'0 0.0 300 / 41021.1 -9.5-13.8
2019-Feb-15 11:00N 51°12' W 056°48'0 0.0 280 / 71019.5 -9.6-13.1
2019-Feb-15 10:00N 51°12' W 056°48'0 0.0 330 / 61017.2 -9.6-13.8
2019-Feb-15 09:00N 51°12' W 056°48'0 0.0 320 / 141015.3 -9.0-13.4
2019-Feb-15 07:00N 51°12' W 056°48'0 0.0 310 / 111011.8 -7.7-11.3
2019-Feb-15 06:00N 51°12' W 056°48'0 0.0 320 / 131010.1 -7.4-10.6
2019-Feb-15 05:00N 51°12' W 056°48'0 0.0 310 / 151008.1 -7.4-11.1
2019-Feb-15 04:00N 51°12' W 056°48'0 0.0 330 / 191006.6 -7.1-11.5
2019-Feb-15 03:00N 51°12' W 056°48'0 0.0 330 / 181004.8 -7.7-11.4
2019-Feb-15 02:00N 51°12' W 056°48'0 0.0 330 / 241002.7 -7.9-11.1
2019-Feb-15 01:00N 51°12' W 056°48'0 0.0 330 / 291000.5 -7.5-10.5
2019-Feb-15 00:00N 51°12' W 056°48'0 0.0 330 / 271000.3 -7.7-10.8
2019-Feb-14 23:00N 51°12' W 056°48'0 0.0 330 / 28999.3 -8.1-11.2
2019-Feb-14 22:00N 51°12' W 056°48'0 0.0 330 / 28998.3 -8.4-11.2
2019-Feb-14 21:00N 51°12' W 056°48'0 0.0 330 / 30996.9 -8.4-10.7
2019-Feb-14 20:00N 51°12' W 056°48'0 0.0 340 / 31996.6 -7.7-9.7
2019-Feb-14 19:00N 51°12' W 056°48'0 0.0 340 / 30996.4 -7.7-9.6
2019-Feb-14 18:00N 51°12' W 056°48'0 0.0 340 / 29996.1 -8.2-10.2
2019-Feb-14 17:00N 51°12' W 056°48'0 0.0 340 / 27997.0 -8.0-10.2
2019-Feb-14 16:00N 51°12' W 056°48'0 0.0 350 / 25998.4 -7.9-10.4
2019-Feb-14 15:00N 51°12' W 056°48'0 0.0 360 / 211000.1 -8.6-11.2
2019-Feb-14 14:00N 51°12' W 056°48'16 8.1 360 / 271000.1 -9.2-11.5
2019-Feb-14 12:00N 51°06' W 057°12'4 3.8 020 / 351001.9 -10.0-11.8
2019-Feb-14 11:00N 51°06' W 057°18'0 0.0 010 / 351002.2 -10.2-12.0
2019-Feb-14 10:00N 51°06' W 057°18'0 0.0 010 / 311003.2 -11.0-12.8
2019-Feb-14 09:00N 51°06' W 057°18'6 6.0 020 / 301004.7 -11.1-13.0
2019-Feb-14 08:00N 51°00' W 057°18'6 6.0 030 / 211005.8 -9.7-11.6
2019-Feb-14 07:00N 50°54' W 057°18'10 9.7 010 / 281006.7 -9.7-11.8
2019-Feb-14 06:00N 50°48' W 057°30'7 7.1 360 / 261007.1 -9.2-11.7
2019-Feb-14 05:00N 50°42' W 057°36'1414.2 010 / 191007.5 -8.0-12.4
2019-Feb-14 04:00N 50°30' W 057°48'1312.6 030 / 221007.4 -7.3-13.0
2019-Feb-14 03:00N 50°18' W 057°54'1312.6 010 / 161009.2 -7.7-12.8
2019-Feb-14 02:00N 50°06' W 058°00'1414.3 030 / 141009.9 -7.0-13.4
2019-Feb-14 01:00N 49°54' W 058°12'7 7.1 030 / 151010.3 -6.7-13.8
2019-Feb-14 00:00N 49°48' W 058°18'1212.0 350 / 141012.7 -8.0-12.4
2019-Feb-13 23:00N 49°36' W 058°18'1312.6 060 / 61013.9 -6.9-12.4
2019-Feb-13 22:00N 49°24' W 058°24'7 7.2 280 / 31014.8 -7.2-13.5
2019-Feb-13 21:00N 49°18' W 058°18'1515.6 110 / 181016.2 -6.9-11.9
2019-Feb-13 20:02N 49°04' W 058°09'013.3
2019-Feb-13 20:00N 49°04' W 058°09'3168.2
2019-Feb-13 20:00N 49°06' W 058°06'715.1 170 / 71017.1 -7.6-12.0
2019-Feb-13 19:30N 48°59' W 058°03'5 9.2
2019-Feb-13 19:00N 48°58' W 057°57'4244.7
2019-Feb-13 19:00N 48°54' W 057°54'4 8.1 1018.4 -7.5-12.3
2019-Feb-13 18:30N 48°58' W 057°57'0 0.0
2019-Feb-13 18:00N 48°58' W 057°57'4243.7
2019-Feb-13 18:00N 48°54' W 057°54'4 8.1 320 / 31019.4 -8.1-12.8
2019-Feb-13 17:30N 48°58' W 057°57'0 0.0
2019-Feb-13 17:00N 48°58' W 057°57'4243.7
2019-Feb-13 17:00N 48°54' W 057°54'4 8.1 310 / 11020.7 -8.4-13.0
2019-Feb-13 16:30N 48°58' W 057°57'0 0.0
2019-Feb-13 16:00N 48°58' W 057°57'4243.7
2019-Feb-13 16:00N 48°54' W 057°54'4 8.1 200 / 31022.3 -8.7-13.5
2019-Feb-13 15:30N 48°58' W 057°57'0 0.0
2019-Feb-13 15:00N 48°58' W 057°57'4243.7
2019-Feb-13 15:00N 48°54' W 057°54'4 8.1 170 / 21023.3 -8.5-13.4
2019-Feb-13 14:30N 48°58' W 057°57'0 0.0
2019-Feb-13 14:00N 48°58' W 057°57'4239.6
2019-Feb-13 14:00N 48°54' W 057°54'4 8.1 190 / 31023.6 -9.4-14.2
2019-Feb-13 13:30N 48°58' W 057°57'0 0.0
2019-Feb-13 13:00N 48°58' W 057°57'4244.1
2019-Feb-13 13:00N 48°54' W 057°54'4 8.1 170 / 51024.5 -9.8-14.7
2019-Feb-13 12:30N 48°58' W 057°57'0 0.0
2019-Feb-13 12:00N 48°58' W 057°57'4239.6
2019-Feb-13 12:00N 48°54' W 057°54'4 8.1 150 / 51024.7 -10.2-14.2
2019-Feb-13 11:30N 48°58' W 057°57'0 0.0
2019-Feb-13 11:00N 48°58' W 057°57'4239.6
2019-Feb-13 11:00N 48°54' W 057°54'4 8.1 110 / 41024.2 -10.2-14.3
2019-Feb-13 10:31N 48°58' W 057°57'0 0.0
2019-Feb-13 10:01N 48°58' W 057°57'4231.8
2019-Feb-13 10:00N 48°54' W 057°54'4 8.1 150 / 61024.6 -10.3-14.5
2019-Feb-13 09:31N 48°58' W 057°57'4 7.6
2019-Feb-13 09:00N 48°54' W 057°54'4122.9 200 / 31024.3 -10.2-14.3
2019-Feb-13 08:58N 48°58' W 057°57'0 0.0
2019-Feb-13 08:28N 48°58' W 057°57'4 8.4
2019-Feb-13 08:00N 48°54' W 057°54'4121.9 230 / 31024.2 -10.1-14.2
2019-Feb-13 07:58N 48°58' W 057°57'0 0.0
2019-Feb-13 07:28N 48°58' W 057°57'4 8.4
2019-Feb-13 07:00N 48°54' W 057°54'4121.9 180 / 51023.8 -10.0-14.4
2019-Feb-13 06:58N 48°58' W 057°57'0 0.0
2019-Feb-13 06:31N 48°58' W 057°57'0 0.0
2019-Feb-13 06:00N 48°58' W 057°57'0 0.0
2019-Feb-13 05:31N 48°58' W 057°57'0 0.0
2019-Feb-13 05:01N 48°58' W 057°57'0 0.0
2019-Feb-13 04:31N 48°58' W 057°57'0 0.0
2019-Feb-13 04:01N 48°58' W 057°57'4231.8
2019-Feb-13 04:00N 48°54' W 057°54'4 8.1 230 / 81022.7 -9.0-14.4
2019-Feb-13 03:31N 48°58' W 057°57'0 0.0
2019-Feb-13 03:01N 48°58' W 057°57'4231.8
2019-Feb-13 03:00N 48°54' W 057°54'4 8.1 230 / 71023.3 -8.3-14.1
2019-Feb-13 02:31N 48°58' W 057°57'0 0.0
2019-Feb-13 02:01N 48°58' W 057°57'4231.8
2019-Feb-13 02:00N 48°54' W 057°54'4 8.1 220 / 81023.0 -7.8-13.6
2019-Feb-13 01:31N 48°58' W 057°57'0 0.0
2019-Feb-13 01:01N 48°58' W 057°57'4231.8
2019-Feb-13 01:00N 48°54' W 057°54'4 8.1 220 / 81023.2 -7.7-13.7
2019-Feb-13 00:30N 48°58' W 057°57'0 0.0
2019-Feb-13 00:01N 48°58' W 057°57'4231.8
2019-Feb-13 00:00N 48°54' W 057°54'4 8.1 220 / 101022.8 -7.7-13.6
2019-Feb-12 23:31N 48°58' W 057°57'0 0.0
2019-Feb-12 23:01N 48°58' W 057°57'4231.8
2019-Feb-12 23:00N 48°54' W 057°54'4 8.1 210 / 111022.1 -7.9-14.0
2019-Feb-12 22:31N 48°58' W 057°57'0 0.0
2019-Feb-12 22:01N 48°58' W 057°57'4231.8
2019-Feb-12 22:00N 48°54' W 057°54'4 8.1 210 / 101021.7 -8.3-13.5
2019-Feb-12 21:31N 48°58' W 057°57'0 0.0
2019-Feb-12 21:01N 48°58' W 057°57'4232.1
2019-Feb-12 21:00N 48°54' W 057°54'4 8.1 210 / 101020.7 -8.8-13.7
2019-Feb-12 20:30N 48°58' W 057°57'0 0.0
2019-Feb-12 20:01N 48°58' W 057°57'4231.8
2019-Feb-12 20:00N 48°54' W 057°54'4 8.1 210 / 111020.0 -9.0-13.8
2019-Feb-12 19:31N 48°58' W 057°57'0 0.0
2019-Feb-12 19:00N 48°58' W 057°57'4248.0
2019-Feb-12 19:00N 48°54' W 057°54'4 7.3 220 / 121019.6 -9.0-13.3
2019-Feb-12 18:27N 48°58' W 057°57'4 8.5
2019-Feb-12 18:00N 48°54' W 057°54'4122.9 220 / 111018.7 -9.0-13.2
2019-Feb-12 17:58N 48°58' W 057°57'0 0.0
2019-Feb-12 17:28N 48°58' W 057°57'4 8.4
2019-Feb-12 17:00N 48°54' W 057°54'4231.8 210 / 131017.6 -8.9-13.2
2019-Feb-12 16:58N 48°58' W 057°57'0 0.0
2019-Feb-12 16:26N 48°58' W 057°57'0 0.0
2019-Feb-12 16:00N 48°58' W 057°57'4248.0
2019-Feb-12 16:00N 48°54' W 057°54'4 8.1 220 / 131017.2 -8.8-13.0
2019-Feb-12 15:31N 48°58' W 057°57'0 0.0
2019-Feb-12 15:01N 48°58' W 057°57'4232.1
2019-Feb-12 15:00N 48°54' W 057°54'4 7.3 230 / 141016.4 -9.1-13.3
2019-Feb-12 14:27N 48°58' W 057°57'3 7.6
2019-Feb-12 14:01N 48°58' W 058°02'5270.4
2019-Feb-12 14:00N 48°54' W 058°00'4 8.7 280 / 151015.1 -8.8-13.5
2019-Feb-12 13:31N 48°58' W 057°57'510.5
2019-Feb-12 13:01N 48°59' W 058°04'5308.6
2019-Feb-12 13:00N 48°54' W 058°06'612.1 280 / 191013.8 -8.5-13.4
2019-Feb-12 12:31N 48°58' W 057°59'2 3.7
2019-Feb-12 12:01N 48°58' W 057°57'4233.2
2019-Feb-12 12:00N 48°54' W 057°54'4 8.1 250 / 91013.7 -9.0-13.0
2019-Feb-12 11:31N 48°58' W 057°57'0 0.0
2019-Feb-12 11:01N 48°58' W 057°57'0 0.0
2019-Feb-12 10:31N 48°58' W 057°57'0 0.0
2019-Feb-12 10:01N 48°58' W 057°57'4231.8
2019-Feb-12 10:00N 48°54' W 057°54'4 8.1 240 / 121011.5 -8.8-13.7
2019-Feb-12 09:31N 48°58' W 057°57'0 0.0
2019-Feb-12 09:01N 48°58' W 057°57'4232.1
2019-Feb-12 09:00N 48°54' W 057°54'4 8.1 230 / 131010.6 -8.6-12.9
2019-Feb-12 08:31N 48°58' W 057°57'0 0.0
2019-Feb-12 08:00N 48°58' W 057°57'4248.0
2019-Feb-12 08:00N 48°54' W 057°54'4 8.1 240 / 131009.6 -8.4-13.0
2019-Feb-12 07:31N 48°58' W 057°57'0 0.0
2019-Feb-12 07:01N 48°58' W 057°57'4231.8
2019-Feb-12 07:00N 48°54' W 057°54'4 8.1 230 / 121008.9 -7.9-12.0
2019-Feb-12 06:31N 48°58' W 057°57'0 0.0
2019-Feb-12 06:01N 48°58' W 057°57'4232.1
2019-Feb-12 06:00N 48°54' W 057°54'4 8.1 220 / 111008.3 -7.7-11.1
2019-Feb-12 05:31N 48°58' W 057°57'0 0.0
2019-Feb-12 05:01N 48°58' W 057°57'4232.1
2019-Feb-12 05:00N 48°54' W 057°54'4 8.1 220 / 101007.4 -7.9-10.8
2019-Feb-12 04:31N 48°58' W 057°57'0 0.0
2019-Feb-12 04:01N 48°58' W 057°57'4231.8
2019-Feb-12 04:00N 48°54' W 057°54'4 8.1 210 / 131006.8 -7.9-10.6
2019-Feb-12 03:31N 48°58' W 057°57'0 0.0
2019-Feb-12 03:00N 48°58' W 057°57'4248.4
2019-Feb-12 03:00N 48°54' W 057°54'4 8.1 200 / 121006.6 -8.0-10.8
2019-Feb-12 02:31N 48°58' W 057°57'0 0.0
2019-Feb-12 02:01N 48°58' W 057°57'4232.1
2019-Feb-12 02:00N 48°54' W 057°54'4 8.1 200 / 151005.6 -8.1-10.3
2019-Feb-12 01:31N 48°58' W 057°57'0 0.0
2019-Feb-12 01:01N 48°58' W 057°57'4231.8
2019-Feb-12 01:00N 48°54' W 057°54'4 8.1 210 / 141004.9 -7.7-10.4
2019-Feb-12 00:30N 48°58' W 057°57'0 0.0
2019-Feb-12 00:01N 48°58' W 057°57'4231.8
2019-Feb-12 00:00N 48°54' W 057°54'4 8.1 210 / 151004.3 -7.9-9.9
2019-Feb-11 23:31N 48°58' W 057°57'0 0.0
2019-Feb-11 23:01N 48°58' W 057°57'0 0.0
2019-Feb-11 22:31N 48°58' W 057°57'0 0.0
2019-Feb-11 22:00N 48°58' W 057°57'4248.0
2019-Feb-11 22:00N 48°54' W 057°54'4 8.1 210 / 151001.2 -8.0-10.7
2019-Feb-11 21:31N 48°58' W 057°57'0 0.0
2019-Feb-11 21:00N 48°58' W 057°57'4239.9
2019-Feb-11 21:00N 48°54' W 057°54'4 8.1 180 / 111000.3 -9.0-12.6
2019-Feb-11 20:30N 48°58' W 057°57'0 0.0
2019-Feb-11 20:00N 48°58' W 057°57'4239.6
2019-Feb-11 20:00N 48°54' W 057°54'4 8.1 170 / 8999.5 -9.9-13.5
2019-Feb-11 19:31N 48°58' W 057°57'0 0.0
2019-Feb-11 19:01N 48°58' W 057°57'4235.6
2019-Feb-11 19:00N 48°54' W 057°54'4 8.1 190 / 14998.6 -10.6-13.4
2019-Feb-11 18:31N 48°58' W 057°57'0 0.0
2019-Feb-11 18:00N 48°58' W 057°57'4442.4
2019-Feb-11 18:00N 48°54' W 057°54'4 8.1 190 / 13997.6 -10.8-14.3
2019-Feb-11 17:31N 48°58' W 057°57'0 0.0
2019-Feb-11 17:01N 48°58' W 057°57'4235.9
2019-Feb-11 17:00N 48°54' W 057°54'4 8.1 180 / 13997.2 -11.3-14.9
2019-Feb-11 16:31N 48°58' W 057°57'0 0.0
2019-Feb-11 16:01N 48°58' W 057°57'4235.6
2019-Feb-11 16:00N 48°54' W 057°54'4 8.1 200 / 21996.1 -11.9-15.4
2019-Feb-11 15:31N 48°58' W 057°57'0 0.0
2019-Feb-11 15:01N 48°58' W 057°57'4232.0
2019-Feb-11 15:00N 48°54' W 057°54'4 7.6 200 / 17996.4 -12.3-14.9
2019-Feb-11 14:29N 48°58' W 057°57'0 0.0
2019-Feb-11 14:00N 48°58' W 057°57'4248.3
2019-Feb-11 14:00N 48°54' W 057°54'4 8.1 190 / 16996.5 -12.7-15.2
2019-Feb-11 13:31N 48°58' W 057°57'0 0.0
2019-Feb-11 13:00N 48°58' W 057°57'4267.1
2019-Feb-11 13:00N 48°54' W 057°54'4 8.1 180 / 16995.8 -13.2-16.1
2019-Feb-11 12:30N 48°58' W 057°57'0 0.0
2019-Feb-11 12:01N 48°58' W 057°57'4235.9
2019-Feb-11 12:00N 48°54' W 057°54'4 8.1 180 / 20995.0 -13.1-16.6
2019-Feb-11 11:30N 48°58' W 057°57'0 0.0
2019-Feb-11 11:00N 48°58' W 057°57'4239.5
2019-Feb-11 11:00N 48°54' W 057°54'4 8.1 190 / 17995.2 -13.3-15.6
2019-Feb-11 10:30N 48°58' W 057°57'0 0.0
2019-Feb-11 10:00N 48°58' W 057°57'4239.6
2019-Feb-11 10:00N 48°54' W 057°54'4 8.1 200 / 24994.4 -13.1-15.7
2019-Feb-11 09:30N 48°58' W 057°57'0 0.0
2019-Feb-11 09:00N 48°58' W 057°57'4248.4
2019-Feb-11 09:00N 48°54' W 057°54'4 8.1 210 / 23994.8 -13.0-15.5
2019-Feb-11 08:30N 48°58' W 057°57'0 0.0
2019-Feb-11 08:01N 48°58' W 057°57'4228.0
2019-Feb-11 08:00N 48°54' W 057°54'4 8.1 210 / 24994.6 -12.8-15.6
2019-Feb-11 07:30N 48°58' W 057°57'0 0.0
2019-Feb-11 07:00N 48°58' W 057°57'4248.4
2019-Feb-11 07:00N 48°54' W 057°54'4 8.1 210 / 24994.3 -12.5-14.9
2019-Feb-11 06:31N 48°58' W 057°57'0 0.0
2019-Feb-11 06:00N 48°58' W 057°57'4248.3
2019-Feb-11 06:00N 48°54' W 057°54'4 8.1 210 / 26994.7 -12.0-14.0
2019-Feb-11 05:31N 48°58' W 057°57'0 0.0
2019-Feb-11 05:01N 48°58' W 057°57'4231.8
2019-Feb-11 05:00N 48°54' W 057°54'4 8.1 200 / 26994.1 -11.4-13.5
2019-Feb-11 04:30N 48°58' W 057°57'0 0.0
2019-Feb-11 03:58N 48°58' W 057°57'0 0.0
2019-Feb-11 03:30N 48°58' W 057°57'0 0.0
2019-Feb-11 03:00N 48°58' W 057°57'4248.4
2019-Feb-11 03:00N 48°54' W 057°54'4 8.1 200 / 22995.4 -10.7-12.9
2019-Feb-11 02:30N 48°58' W 057°57'0 0.0
2019-Feb-11 02:01N 48°58' W 057°57'4235.9
2019-Feb-11 02:00N 48°54' W 057°54'4 8.1 190 / 25995.7 -10.3-13.0
2019-Feb-11 01:31N 48°58' W 057°57'0 0.0
2019-Feb-11 01:01N 48°58' W 057°57'4235.9
2019-Feb-11 01:00N 48°54' W 057°54'4 8.1 190 / 24996.5 -9.9-13.0
2019-Feb-11 00:31N 48°58' W 057°57'0 0.0
2019-Feb-11 00:01N 48°58' W 057°57'4235.6
2019-Feb-11 00:00N 48°54' W 057°54'4 8.1 190 / 26996.2 -9.9-13.3
2019-Feb-10 23:31N 48°58' W 057°57'0 0.0
2019-Feb-10 23:01N 48°58' W 057°57'4235.9
2019-Feb-10 23:00N 48°54' W 057°54'4 8.1 190 / 22996.8 -9.8-13.0
2019-Feb-10 22:31N 48°58' W 057°57'0 0.0
2019-Feb-10 22:01N 48°58' W 057°57'4235.9
2019-Feb-10 22:00N 48°54' W 057°54'4 8.1 190 / 25996.9 -9.8-12.5
2019-Feb-10 21:31N 48°58' W 057°57'0 0.0
2019-Feb-10 21:01N 48°58' W 057°57'4232.1
2019-Feb-10 21:00N 48°54' W 057°54'4 8.1 200 / 23996.7 -9.9-12.6
2019-Feb-10 20:30N 48°58' W 057°57'0 0.0
2019-Feb-10 20:01N 48°58' W 057°57'4235.9
2019-Feb-10 20:00N 48°54' W 057°54'4 8.1 200 / 25996.0 -9.8-12.1
2019-Feb-10 19:30N 48°58' W 057°57'0 0.0
2019-Feb-10 19:01N 48°58' W 057°57'4235.9
2019-Feb-10 19:00N 48°54' W 057°54'4 8.1 200 / 29995.4 -9.7-12.4
2019-Feb-10 18:30N 48°58' W 057°57'0 0.0
2019-Feb-10 18:01N 48°58' W 057°57'4235.5
2019-Feb-10 18:00N 48°54' W 057°54'4 8.1 190 / 28994.3 -9.8-12.1
2019-Feb-10 17:30N 48°58' W 057°57'0 0.0
2019-Feb-10 17:00N 48°58' W 057°57'4248.4
2019-Feb-10 17:00N 48°54' W 057°54'4 8.1 190 / 19994.6 -9.9-11.8
2019-Feb-10 16:31N 48°58' W 057°57'0 0.0
2019-Feb-10 16:00N 48°58' W 057°57'0 0.0
2019-Feb-10 15:31N 48°58' W 057°57'  

Dump ship's entire track history